createdAt,value
2023-02-19T00:01:52.228Z,10.41
2023-02-19T00:04:22.089Z,10.45
2023-02-19T00:06:50.180Z,10.45
2023-02-19T00:09:18.214Z,10.46
2023-02-19T00:11:46.911Z,10.46
2023-02-19T00:14:19.702Z,10.46
2023-02-19T00:16:47.248Z,10.42
2023-02-19T00:19:18.760Z,10.40
2023-02-19T00:21:45.937Z,10.41
2023-02-19T00:24:14.421Z,10.41
2023-02-19T00:26:42.414Z,10.42
2023-02-19T00:29:13.162Z,10.39
2023-02-19T00:31:40.461Z,10.35
2023-02-19T00:34:07.185Z,10.30
2023-02-19T00:36:36.706Z,10.32
2023-02-19T00:39:04.658Z,10.33
2023-02-19T00:41:31.250Z,10.31
2023-02-19T00:44:03.172Z,10.26
2023-02-19T00:46:32.267Z,10.24
2023-02-19T00:48:59.411Z,10.24
2023-02-19T00:51:29.352Z,10.28
2023-02-19T00:53:56.031Z,10.29
2023-02-19T00:56:23.229Z,10.29
2023-02-19T00:58:50.493Z,10.31
2023-02-19T01:01:17.845Z,10.30
2023-02-19T01:03:44.950Z,10.28
2023-02-19T01:06:13.713Z,10.30
2023-02-19T01:08:40.311Z,10.29
2023-02-19T01:11:09.588Z,10.29
2023-02-19T01:13:37.330Z,10.32
2023-02-19T01:16:16.125Z,10.32
2023-02-19T01:18:43.822Z,10.33
2023-02-19T01:21:17.919Z,10.32
2023-02-19T01:23:44.682Z,10.31
2023-02-19T01:26:17.582Z,10.30
2023-02-19T01:28:44.744Z,10.33
2023-02-19T01:31:17.817Z,10.33
2023-02-19T01:33:47.020Z,10.29
2023-02-19T01:36:14.240Z,10.27
2023-02-19T01:38:41.261Z,10.28
2023-02-19T01:41:10.326Z,10.29
2023-02-19T01:44:13.986Z,10.28
2023-02-19T01:46:42.804Z,10.25
2023-02-19T01:49:19.128Z,10.25
2023-02-19T01:51:49.353Z,10.24
2023-02-19T01:54:19.571Z,10.25
2023-02-19T01:56:49.176Z,10.25
2023-02-19T01:59:17.451Z,10.23
2023-02-19T02:01:44.999Z,10.21
2023-02-19T02:04:13.965Z,10.21
2023-02-19T02:07:02.195Z,10.19
2023-02-19T02:09:49.158Z,10.21
2023-02-19T02:12:15.883Z,10.21
2023-02-19T02:14:45.699Z,10.26
2023-02-19T02:17:15.091Z,10.25
2023-02-19T02:20:00.099Z,10.25
2023-02-19T02:22:43.442Z,10.27
2023-02-19T02:25:16.352Z,10.26
2023-02-19T02:28:07.272Z,10.27
2023-02-19T02:31:12.159Z,10.27
2023-02-19T02:34:06.673Z,10.27
2023-02-19T02:36:40.400Z,10.23
2023-02-19T02:39:11.822Z,10.24
2023-02-19T02:41:44.046Z,10.27
2023-02-19T02:44:10.832Z,10.28
2023-02-19T02:46:42.520Z,10.24
2023-02-19T02:49:21.362Z,10.25
2023-02-19T02:51:52.198Z,10.25
2023-02-19T02:54:41.959Z,10.23
2023-02-19T02:57:15.171Z,10.24
2023-02-19T02:59:43.077Z,10.24
2023-02-19T03:02:19.248Z,10.26
2023-02-19T03:05:07.623Z,10.28
2023-02-19T03:07:41.774Z,10.25
2023-02-19T03:10:13.577Z,10.27
2023-02-19T03:12:59.524Z,10.26
2023-02-19T03:15:51.291Z,10.26
2023-02-19T03:18:38.109Z,10.25
2023-02-19T03:21:07.409Z,10.23
2023-02-19T03:23:54.593Z,10.23
2023-02-19T03:26:21.834Z,10.21
2023-02-19T03:29:10.412Z,10.24
2023-02-19T03:31:41.286Z,10.24
2023-02-19T03:34:11.915Z,10.20
2023-02-19T03:36:46.134Z,10.21
2023-02-19T03:39:17.546Z,10.23
2023-02-19T03:42:10.276Z,10.19
2023-02-19T03:44:48.884Z,10.22
2023-02-19T03:47:33.201Z,10.21
2023-02-19T03:50:20.267Z,10.23
2023-02-19T03:52:53.813Z,10.23
2023-02-19T03:55:44.213Z,10.23
2023-02-19T03:58:27.985Z,10.27
2023-02-19T04:01:08.567Z,10.26
2023-02-19T04:03:48.604Z,10.22
2023-02-19T04:06:23.058Z,10.18
2023-02-19T04:08:54.697Z,10.21
2023-02-19T04:11:23.392Z,10.21
2023-02-19T04:13:58.674Z,10.17
2023-02-19T04:16:28.816Z,10.17
2023-02-19T04:19:00.367Z,10.19
2023-02-19T04:21:30.393Z,10.25
2023-02-19T04:24:00.811Z,10.26
2023-02-19T04:26:28.551Z,10.27
2023-02-19T04:28:55.154Z,10.26
2023-02-19T04:31:23.159Z,10.14
2023-02-19T04:33:49.722Z,10.11
2023-02-19T04:36:18.723Z,10.13
2023-02-19T04:38:45.469Z,10.10
2023-02-19T04:41:12.500Z,10.15
2023-02-19T04:43:39.245Z,10.16
2023-02-19T04:46:05.840Z,10.09
2023-02-19T04:48:32.440Z,10.09
2023-02-19T04:50:58.955Z,10.09
2023-02-19T04:53:25.489Z,10.10
2023-02-19T04:55:53.513Z,10.11
2023-02-19T04:58:20.744Z,10.16
2023-02-19T05:00:51.053Z,10.12
2023-02-19T05:03:17.581Z,10.10
2023-02-19T05:05:44.073Z,10.14
2023-02-19T05:08:10.598Z,10.08
2023-02-19T05:10:37.172Z,10.00
2023-02-19T05:13:03.704Z,9.98
2023-02-19T05:15:30.525Z,10.04
2023-02-19T05:17:57.107Z,10.05
2023-02-19T05:20:23.709Z,10.06
2023-02-19T05:22:50.271Z,10.08
2023-02-19T05:25:16.987Z,10.06
2023-02-19T05:27:43.952Z,10.06
2023-02-19T05:30:11.460Z,10.09
2023-02-19T05:32:38.603Z,10.05
2023-02-19T05:35:05.529Z,10.06
2023-02-19T05:37:32.472Z,10.12
2023-02-19T05:39:58.967Z,10.12
2023-02-19T05:42:25.581Z,10.05
2023-02-19T05:44:52.082Z,10.02
2023-02-19T05:47:18.596Z,10.00
2023-02-19T05:49:45.109Z,9.98
2023-02-19T05:52:11.656Z,9.97
2023-02-19T05:54:38.195Z,9.95
2023-02-19T05:57:04.828Z,9.96
2023-02-19T05:59:31.684Z,9.90
2023-02-19T06:01:58.498Z,9.94
2023-02-19T06:04:25.149Z,9.92
2023-02-19T06:06:51.669Z,9.92
2023-02-19T06:09:18.230Z,9.94
2023-02-19T06:11:44.971Z,9.94
2023-02-19T06:14:13.991Z,9.90
2023-02-19T06:16:41.126Z,9.88
2023-02-19T06:19:07.667Z,9.85
2023-02-19T06:21:36.654Z,9.86
2023-02-19T06:24:08.304Z,9.81
2023-02-19T06:26:36.487Z,9.83
2023-02-19T06:29:03.460Z,9.80
2023-02-19T06:31:32.243Z,9.73
2023-02-19T06:33:58.830Z,9.74
2023-02-19T06:36:25.579Z,9.75
2023-02-19T06:38:52.156Z,9.72
2023-02-19T06:41:26.522Z,9.75
2023-02-19T06:43:53.112Z,9.73
2023-02-19T06:46:21.070Z,9.72
2023-02-19T06:48:47.715Z,9.76
2023-02-19T06:51:18.805Z,9.80
2023-02-19T06:53:46.280Z,9.83
2023-02-19T06:56:30.792Z,9.83
2023-02-19T06:59:00.591Z,9.82
2023-02-19T07:01:28.923Z,9.84
2023-02-19T07:03:58.347Z,9.83
2023-02-19T07:06:26.958Z,9.82
2023-02-19T07:08:56.475Z,9.84
2023-02-19T07:11:26.580Z,9.83
2023-02-19T07:13:57.264Z,9.82
2023-02-19T07:16:24.501Z,9.83
2023-02-19T07:18:56.394Z,9.84
2023-02-19T07:21:23.204Z,9.72
2023-02-19T07:23:50.096Z,9.72
2023-02-19T07:26:19.207Z,9.71
2023-02-19T07:28:48.676Z,9.77
2023-02-19T07:31:20.283Z,9.72
2023-02-19T07:33:47.988Z,9.76
2023-02-19T07:36:17.551Z,9.75
2023-02-19T07:38:44.937Z,9.78
2023-02-19T07:41:12.134Z,9.80
2023-02-19T07:43:40.112Z,9.85
2023-02-19T07:46:09.294Z,9.84
2023-02-19T07:48:36.917Z,9.89
2023-02-19T07:51:05.796Z,9.88
2023-02-19T07:53:34.820Z,9.85
2023-02-19T07:56:03.151Z,9.85
2023-02-19T07:58:30.500Z,9.81
2023-02-19T08:00:57.821Z,9.89
2023-02-19T08:03:24.467Z,9.85
2023-02-19T08:05:54.206Z,9.88
2023-02-19T08:08:21.105Z,9.92
2023-02-19T08:11:05.990Z,9.97
2023-02-19T08:13:33.301Z,10.00
2023-02-19T08:16:20.146Z,10.00
2023-02-19T08:18:51.248Z,10.03
2023-02-19T08:21:21.132Z,10.04
2023-02-19T08:23:50.628Z,10.08
2023-02-19T08:26:18.196Z,10.11
2023-02-19T08:28:45.016Z,10.10
2023-02-19T08:31:13.272Z,10.10
2023-02-19T08:33:40.466Z,10.15
2023-02-19T08:36:09.431Z,10.16
2023-02-19T08:38:37.889Z,10.20
2023-02-19T08:41:10.625Z,10.22
2023-02-19T08:43:37.861Z,10.24
2023-02-19T08:46:06.234Z,10.26
2023-02-19T08:48:33.253Z,10.26
2023-02-19T08:51:05.621Z,10.31
2023-02-19T08:53:33.196Z,10.22
2023-02-19T08:56:11.866Z,10.28
2023-02-19T08:58:39.098Z,10.27
2023-02-19T09:01:14.417Z,10.34
2023-02-19T09:03:41.616Z,10.38
2023-02-19T09:06:11.294Z,10.41
2023-02-19T09:08:38.374Z,10.47
2023-02-19T09:11:07.075Z,10.46
2023-02-19T09:13:33.602Z,10.47
2023-02-19T09:16:00.133Z,10.50
2023-02-19T09:18:27.646Z,10.42
2023-02-19T09:20:54.141Z,10.37
2023-02-19T09:23:20.905Z,10.38
2023-02-19T09:25:47.510Z,10.36
2023-02-19T09:28:14.100Z,10.40
2023-02-19T09:30:40.624Z,10.30
2023-02-19T09:33:07.838Z,10.38
2023-02-19T09:35:34.334Z,10.45
2023-02-19T09:38:02.090Z,10.46
2023-02-19T09:40:30.387Z,10.46
2023-02-19T09:42:57.754Z,10.45
2023-02-19T09:45:28.055Z,10.35
2023-02-19T09:47:59.894Z,10.34
2023-02-19T09:50:36.137Z,10.28
2023-02-19T09:53:08.728Z,10.16
2023-02-19T09:55:43.494Z,10.05
2023-02-19T09:58:22.423Z,10.11
2023-02-19T10:00:50.877Z,10.19
2023-02-19T10:03:25.606Z,10.35
2023-02-19T10:05:53.306Z,10.42
2023-02-19T10:08:21.644Z,10.49
2023-02-19T10:10:48.214Z,10.43
2023-02-19T10:13:24.274Z,10.40
2023-02-19T10:15:54.390Z,10.36
2023-02-19T10:18:24.719Z,10.40
2023-02-19T10:20:53.720Z,10.33
2023-02-19T10:23:20.640Z,10.42
2023-02-19T10:25:58.015Z,10.45
2023-02-19T10:28:34.196Z,10.47
2023-02-19T10:31:16.271Z,10.61
2023-02-19T10:33:52.209Z,10.67
2023-02-19T10:36:41.403Z,10.73
2023-02-19T10:39:30.438Z,10.83
2023-02-19T10:41:57.198Z,10.81
2023-02-19T10:44:29.178Z,10.94
2023-02-19T10:46:59.753Z,10.86
2023-02-19T10:49:31.763Z,10.91
2023-02-19T10:52:02.998Z,10.75
2023-02-19T10:54:32.644Z,10.77
2023-02-19T10:57:30.554Z,10.77
2023-02-19T11:00:02.343Z,10.77
2023-02-19T11:02:31.466Z,10.86
2023-02-19T11:05:25.122Z,10.89
2023-02-19T11:07:57.319Z,10.85
2023-02-19T11:10:28.548Z,10.77
2023-02-19T11:12:59.192Z,10.55
2023-02-19T11:15:30.348Z,10.50
2023-02-19T11:18:30.801Z,10.48
2023-02-19T11:21:01.995Z,10.55
2023-02-19T11:23:38.330Z,10.61
2023-02-19T11:26:14.062Z,10.65
2023-02-19T11:28:41.088Z,10.73
2023-02-19T11:31:19.981Z,10.77
2023-02-19T11:33:58.081Z,10.80
2023-02-19T11:36:30.919Z,10.82
2023-02-19T11:39:10.773Z,10.76
2023-02-19T11:41:52.377Z,10.67
2023-02-19T11:44:40.709Z,10.49
2023-02-19T11:47:52.192Z,10.27
2023-02-19T11:50:22.928Z,10.17
2023-02-19T11:53:28.149Z,10.19
2023-02-19T11:56:19.072Z,10.17
2023-02-19T11:59:02.255Z,10.16
2023-02-19T12:02:02.831Z,10.11
2023-02-19T12:04:48.226Z,10.20
2023-02-19T12:07:36.880Z,10.27
2023-02-19T12:10:28.486Z,10.46
2023-02-19T12:13:19.680Z,10.54
2023-02-19T12:15:57.167Z,10.47
2023-02-19T12:18:38.130Z,10.34
2023-02-19T12:21:10.622Z,10.14
2023-02-19T12:23:52.416Z,10.00
2023-02-19T12:26:30.426Z,9.85
2023-02-19T12:29:15.165Z,9.84
2023-02-19T12:32:00.915Z,9.73
2023-02-19T12:35:06.001Z,9.73
2023-02-19T12:37:58.556Z,9.86
2023-02-19T12:40:49.750Z,9.98
2023-02-19T12:43:22.029Z,10.11
2023-02-19T12:46:05.415Z,10.20
2023-02-19T12:48:47.510Z,10.16
2023-02-19T12:51:43.374Z,10.26
2023-02-19T12:54:27.253Z,10.43
2023-02-19T12:57:25.950Z,10.49
2023-02-19T13:00:08.874Z,10.44
2023-02-19T13:02:43.464Z,10.39
2023-02-19T13:05:21.808Z,10.40
2023-02-19T13:07:54.709Z,10.36
2023-02-19T13:10:36.842Z,10.36
2023-02-19T13:13:15.788Z,10.33
2023-02-19T13:15:46.061Z,10.37
2023-02-19T13:18:18.837Z,10.31
2023-02-19T13:20:51.030Z,10.33
2023-02-19T13:23:58.764Z,10.36
2023-02-19T13:26:44.569Z,10.39
2023-02-19T13:29:18.273Z,10.40
2023-02-19T13:32:25.871Z,10.37
2023-02-19T13:35:29.640Z,10.42
2023-02-19T13:38:01.815Z,10.51
2023-02-19T13:40:39.321Z,10.59
2023-02-19T13:43:21.098Z,10.64
2023-02-19T13:46:01.052Z,10.61
2023-02-19T13:48:32.022Z,10.58
2023-02-19T13:51:21.668Z,10.53
2023-02-19T13:53:48.328Z,10.53
2023-02-19T13:56:30.479Z,10.50
2023-02-19T13:58:58.470Z,10.48
2023-02-19T14:01:49.659Z,10.42
2023-02-19T14:04:32.727Z,10.25
2023-02-19T14:07:08.587Z,10.24
2023-02-19T14:09:41.222Z,10.23
2023-02-19T14:12:07.938Z,10.14
2023-02-19T14:14:44.341Z,10.10
2023-02-19T14:17:12.946Z,10.06
2023-02-19T14:19:42.762Z,9.98
2023-02-19T14:22:46.959Z,9.96
2023-02-19T14:25:34.823Z,9.95
2023-02-19T14:28:12.602Z,9.92
2023-02-19T14:30:56.387Z,9.94
2023-02-19T14:33:26.573Z,9.95
2023-02-19T14:35:58.388Z,9.91
2023-02-19T14:38:39.386Z,9.91
2023-02-19T14:41:06.986Z,9.83
2023-02-19T14:43:41.222Z,9.87
2023-02-19T14:46:19.748Z,9.89
2023-02-19T14:48:49.806Z,9.88
2023-02-19T14:51:38.529Z,9.90
2023-02-19T14:54:15.814Z,9.90
2023-02-19T14:56:47.712Z,9.89
2023-02-19T14:59:14.418Z,9.86
2023-02-19T15:01:41.052Z,9.91
2023-02-19T15:04:26.112Z,9.92
2023-02-19T15:06:57.092Z,10.02
2023-02-19T15:09:33.149Z,9.99
2023-02-19T15:12:02.833Z,10.04
2023-02-19T15:14:30.864Z,10.07
2023-02-19T15:17:01.438Z,10.09
2023-02-19T15:19:32.983Z,10.13
2023-02-19T15:22:00.033Z,10.15
2023-02-19T15:24:28.308Z,10.16
2023-02-19T15:26:55.623Z,10.13
2023-02-19T15:29:27.143Z,10.05
2023-02-19T15:31:56.922Z,10.06
2023-02-19T15:34:31.589Z,10.08
2023-02-19T15:37:06.714Z,10.05
2023-02-19T15:39:40.143Z,10.02
2023-02-19T15:42:09.805Z,9.96
2023-02-19T15:44:42.345Z,9.94
2023-02-19T15:47:18.630Z,9.96
2023-02-19T15:50:19.075Z,9.93
2023-02-19T15:52:48.993Z,9.89
2023-02-19T15:55:43.777Z,9.89
2023-02-19T15:58:22.213Z,9.89
2023-02-19T16:00:52.804Z,9.88
2023-02-19T16:03:22.286Z,9.84
2023-02-19T16:06:03.404Z,9.74
2023-02-19T16:08:30.922Z,9.75
2023-02-19T16:11:02.761Z,9.73
2023-02-19T16:13:32.400Z,9.76
2023-02-19T16:16:19.306Z,9.72
2023-02-19T16:18:47.661Z,9.74
2023-02-19T16:21:17.257Z,9.68
2023-02-19T16:23:46.331Z,9.71
2023-02-19T16:26:13.301Z,9.66
2023-02-19T16:28:41.457Z,9.63
2023-02-19T16:31:13.772Z,9.55
2023-02-19T16:33:41.744Z,9.56
2023-02-19T16:36:21.754Z,9.53
2023-02-19T16:39:10.377Z,9.49
2023-02-19T16:42:00.129Z,9.45
2023-02-19T16:44:31.355Z,9.41
2023-02-19T16:47:03.892Z,9.41
2023-02-19T16:49:31.068Z,9.44
2023-02-19T16:52:02.681Z,9.37
2023-02-19T16:54:30.734Z,9.35
2023-02-19T16:56:57.353Z,9.38
2023-02-19T16:59:23.864Z,9.38
2023-02-19T17:01:50.662Z,9.40
2023-02-19T17:04:17.330Z,9.39
2023-02-19T17:06:45.654Z,9.35
2023-02-19T17:09:12.265Z,9.33
2023-02-19T17:11:39.719Z,9.31
2023-02-19T17:14:06.288Z,9.32
2023-02-19T17:16:40.463Z,9.30
2023-02-19T17:19:14.771Z,9.29
2023-02-19T17:21:41.941Z,9.21
2023-02-19T17:24:08.575Z,9.22
2023-02-19T17:26:35.147Z,9.12
2023-02-19T17:29:04.618Z,9.16
2023-02-19T17:31:31.296Z,9.11
2023-02-19T17:33:58.971Z,9.10
2023-02-19T17:36:30.904Z,9.13
2023-02-19T17:38:59.153Z,9.12
2023-02-19T17:41:26.074Z,9.10
2023-02-19T17:43:53.406Z,9.12
2023-02-19T17:46:26.009Z,9.05
2023-02-19T17:48:53.844Z,9.08
2023-02-19T17:51:20.780Z,9.05
2023-02-19T17:53:47.448Z,9.07
2023-02-19T17:56:30.442Z,9.06
2023-02-19T17:58:57.952Z,9.04
2023-02-19T18:01:25.058Z,8.95
2023-02-19T18:03:51.977Z,8.99
2023-02-19T18:06:19.282Z,8.99
2023-02-19T18:08:53.222Z,9.01
2023-02-19T18:11:22.220Z,8.92
2023-02-19T18:13:50.782Z,8.91
2023-02-19T18:16:17.844Z,8.91
2023-02-19T18:18:45.204Z,8.89
2023-02-19T18:21:13.799Z,8.81
2023-02-19T18:23:40.854Z,8.81
2023-02-19T18:26:10.363Z,8.72
2023-02-19T18:28:37.945Z,8.72
2023-02-19T18:31:04.800Z,8.72
2023-02-19T18:33:31.554Z,8.77
2023-02-19T18:35:58.058Z,8.78
2023-02-19T18:38:24.536Z,8.72
2023-02-19T18:40:51.101Z,8.72
2023-02-19T18:43:17.616Z,8.75
2023-02-19T18:45:45.525Z,8.75
2023-02-19T18:48:12.340Z,8.65
2023-02-19T18:50:38.843Z,8.71
2023-02-19T18:53:05.456Z,8.73
2023-02-19T18:55:31.991Z,8.71
2023-02-19T18:57:58.892Z,8.67
2023-02-19T19:00:26.685Z,8.70
2023-02-19T19:03:00.145Z,8.71
2023-02-19T19:05:27.451Z,8.73
2023-02-19T19:07:56.250Z,8.81
2023-02-19T19:10:24.045Z,8.84
2023-02-19T19:12:51.374Z,8.87
2023-02-19T19:15:18.987Z,8.86
2023-02-19T19:17:47.079Z,8.87
2023-02-19T19:20:16.483Z,8.79
2023-02-19T19:22:43.279Z,8.78
2023-02-19T19:25:10.092Z,8.76
2023-02-19T19:27:36.897Z,8.69
2023-02-19T19:30:05.135Z,8.73
2023-02-19T19:32:31.767Z,8.71
2023-02-19T19:35:00.967Z,8.70
2023-02-19T19:37:29.268Z,8.74
2023-02-19T19:39:56.466Z,8.61
2023-02-19T19:42:23.242Z,8.64
2023-02-19T19:44:50.662Z,8.65
2023-02-19T19:47:17.388Z,8.61
2023-02-19T19:49:47.212Z,8.62
2023-02-19T19:52:14.271Z,8.60
2023-02-19T19:54:43.074Z,8.64
2023-02-19T19:57:10.378Z,8.67
2023-02-19T19:59:39.447Z,8.70
2023-02-19T20:02:07.674Z,8.65
2023-02-19T20:04:34.404Z,8.66
2023-02-19T20:07:00.991Z,8.71
2023-02-19T20:09:29.188Z,8.69
2023-02-19T20:11:56.803Z,8.73
2023-02-19T20:14:25.578Z,8.72
2023-02-19T20:16:53.347Z,8.75
2023-02-19T20:19:20.919Z,8.72
2023-02-19T20:21:52.642Z,8.72
2023-02-19T20:24:24.896Z,8.73
2023-02-19T20:26:54.031Z,8.63
2023-02-19T20:29:20.643Z,8.61
2023-02-19T20:31:49.306Z,8.53
2023-02-19T20:34:16.340Z,8.46
2023-02-19T20:36:44.507Z,8.45
2023-02-19T20:39:11.651Z,8.40
2023-02-19T20:41:38.297Z,8.39
2023-02-19T20:44:06.213Z,8.41
2023-02-19T20:46:32.893Z,8.39
2023-02-19T20:48:59.503Z,8.32
2023-02-19T20:51:26.105Z,8.34
2023-02-19T20:53:52.689Z,8.34
2023-02-19T20:56:19.216Z,8.37
2023-02-19T20:58:45.917Z,8.34
2023-02-19T21:01:12.512Z,8.30
2023-02-19T21:03:39.060Z,8.30
2023-02-19T21:06:05.962Z,8.31
2023-02-19T21:08:36.521Z,8.33
2023-02-19T21:11:03.193Z,8.30
2023-02-19T21:13:30.349Z,8.28
2023-02-19T21:15:56.938Z,8.26
2023-02-19T21:18:23.497Z,8.24
2023-02-19T21:20:49.973Z,8.21
2023-02-19T21:23:16.510Z,8.19
2023-02-19T21:25:43.023Z,8.16
2023-02-19T21:28:10.446Z,8.14
2023-02-19T21:30:37.059Z,8.06
2023-02-19T21:33:04.184Z,7.99
2023-02-19T21:35:30.988Z,7.95
2023-02-19T21:37:57.504Z,7.89
2023-02-19T21:40:25.352Z,7.92
2023-02-19T21:42:51.966Z,7.90
2023-02-19T21:45:18.539Z,7.89
2023-02-19T21:47:45.342Z,7.86
2023-02-19T21:50:12.385Z,7.86
2023-02-19T21:52:38.878Z,7.85
2023-02-19T21:55:06.374Z,7.80
2023-02-19T21:57:33.151Z,7.81
2023-02-19T22:00:00.306Z,7.77
2023-02-19T22:02:27.185Z,7.77
2023-02-19T22:04:54.242Z,7.74
2023-02-19T22:07:22.286Z,7.76
2023-02-19T22:09:50.117Z,7.76
2023-02-19T22:12:18.028Z,7.77
2023-02-19T22:14:45.527Z,7.73
2023-02-19T22:17:12.412Z,7.72
2023-02-19T22:19:39.308Z,7.70
2023-02-19T22:22:06.115Z,7.64
2023-02-19T22:24:32.662Z,7.63
2023-02-19T22:26:59.285Z,7.64
2023-02-19T22:29:25.856Z,7.59
2023-02-19T22:31:53.001Z,7.53
2023-02-19T22:34:19.823Z,7.51
2023-02-19T22:36:46.936Z,7.53
2023-02-19T22:39:22.726Z,7.56
2023-02-19T22:41:49.895Z,7.52
2023-02-19T22:44:17.040Z,7.47
2023-02-19T22:47:02.143Z,7.48
2023-02-19T22:49:28.811Z,7.41
2023-02-19T22:52:01.317Z,7.34
2023-02-19T22:54:28.171Z,7.38
2023-02-19T22:56:55.709Z,7.29
2023-02-19T22:59:23.095Z,7.29
2023-02-19T23:01:50.488Z,7.26
2023-02-19T23:04:17.245Z,7.26
2023-02-19T23:06:45.796Z,7.25
2023-02-19T23:09:21.159Z,7.20
2023-02-19T23:11:50.666Z,7.11
2023-02-19T23:14:19.280Z,7.11
2023-02-19T23:16:46.696Z,7.08
2023-02-19T23:19:15.883Z,7.10
2023-02-19T23:21:44.663Z,7.07
2023-02-19T23:24:12.192Z,7.12
2023-02-19T23:26:51.883Z,7.02
2023-02-19T23:29:25.305Z,7.03
2023-02-19T23:31:52.390Z,7.13
2023-02-19T23:34:19.573Z,7.17
2023-02-19T23:36:49.195Z,7.09
2023-02-19T23:39:18.318Z,7.07
2023-02-19T23:41:55.661Z,7.12
2023-02-19T23:44:24.520Z,7.13
2023-02-19T23:46:52.333Z,7.10
2023-02-19T23:49:19.295Z,7.14
2023-02-19T23:51:46.539Z,7.05
2023-02-19T23:54:13.521Z,7.08
2023-02-19T23:56:40.249Z,7.08
2023-02-19T23:59:07.201Z,7.05
